createdAt,value
2019-02-21T00:00:49.688Z,101920.28
2019-02-21T00:03:20.965Z,101922.05
2019-02-21T00:05:51.173Z,101926.44
2019-02-21T00:08:21.427Z,101925.98
2019-02-21T00:10:51.596Z,101920.69
2019-02-21T00:13:21.823Z,101924.70
2019-02-21T00:15:52.200Z,101918.09
2019-02-21T00:18:22.464Z,101926.48
2019-02-21T00:20:52.737Z,101921.56
2019-02-21T00:23:22.929Z,101923.79
2019-02-21T00:25:55.708Z,101932.59
2019-02-21T00:28:24.956Z,101927.31
2019-02-21T00:30:55.281Z,101926.90
2019-02-21T00:33:25.512Z,101924.25
2019-02-21T00:35:55.723Z,101913.62
2019-02-21T00:38:25.907Z,101911.89
2019-02-21T00:40:56.132Z,101915.45
2019-02-21T00:43:26.443Z,101907.92
2019-02-21T00:45:56.590Z,101914.03
2019-02-21T00:48:26.762Z,101911.39
2019-02-21T00:50:56.934Z,101912.34
2019-02-21T00:53:27.170Z,101915.86
2019-02-21T00:55:57.379Z,101913.67
2019-02-21T00:58:27.576Z,101922.02
2019-02-21T01:00:57.794Z,101921.59
2019-02-21T01:03:28.044Z,101918.50
2019-02-21T01:05:59.305Z,101915.86
2019-02-21T01:08:29.465Z,101921.15
2019-02-21T01:10:59.708Z,101919.83
2019-02-21T01:13:30.790Z,101917.63
2019-02-21T01:16:01.009Z,101914.08
2019-02-21T01:18:31.231Z,101913.62
2019-02-21T01:21:01.452Z,101911.42
2019-02-21T01:23:31.632Z,101912.70
2019-02-21T01:26:01.858Z,101910.97
2019-02-21T01:28:32.082Z,101909.70
2019-02-21T01:31:02.305Z,101908.83
2019-02-21T01:33:32.465Z,101912.30
2019-02-21T01:36:02.644Z,101916.32
2019-02-21T01:38:32.883Z,101924.70
2019-02-21T01:41:03.086Z,101918.09
2019-02-21T01:43:33.290Z,101924.70
2019-02-21T01:46:03.513Z,101919.41
2019-02-21T01:48:33.656Z,101918.55
2019-02-21T01:51:03.833Z,101924.70
2019-02-21T01:53:34.029Z,101929.13
2019-02-21T01:56:04.946Z,101926.90
2019-02-21T01:58:35.168Z,101917.64
2019-02-21T02:01:08.632Z,101920.74
2019-02-21T02:03:37.682Z,101916.36
2019-02-21T02:06:07.910Z,101905.74
2019-02-21T02:08:38.234Z,101914.13
2019-02-21T02:11:08.450Z,101917.27
2019-02-21T02:13:41.640Z,101914.17
2019-02-21T02:16:11.758Z,101916.36
2019-02-21T02:18:41.922Z,101923.42
2019-02-21T02:21:12.668Z,101923.88
2019-02-21T02:23:42.907Z,101923.42
2019-02-21T02:26:14.759Z,101915.07
2019-02-21T02:28:44.966Z,101915.94
2019-02-21T02:31:22.905Z,101919.04
2019-02-21T02:33:46.964Z,101921.23
2019-02-21T02:36:17.171Z,101921.19
2019-02-21T02:38:47.410Z,101928.30
2019-02-21T02:41:17.570Z,101928.72
2019-02-21T02:43:47.761Z,101929.17
2019-02-21T02:46:18.443Z,101926.11
2019-02-21T02:48:48.629Z,101921.27
2019-02-21T02:51:18.943Z,101925.69
2019-02-21T02:53:49.299Z,101930.08
2019-02-21T02:56:19.459Z,101931.85
2019-02-21T02:58:49.687Z,101920.36
2019-02-21T03:01:19.851Z,101930.08
2019-02-21T03:03:50.130Z,101931.85
2019-02-21T03:06:20.314Z,101932.30
2019-02-21T03:08:51.088Z,101931.44
2019-02-21T03:11:21.451Z,101933.17
2019-02-21T03:13:51.650Z,101933.55
2019-02-21T03:16:21.919Z,101937.55
2019-02-21T03:18:52.113Z,101935.33
2019-02-21T03:21:22.329Z,101938.84
2019-02-21T03:23:52.441Z,101938.84
2019-02-21T03:26:22.583Z,101937.52
2019-02-21T03:28:52.702Z,101933.97
2019-02-21T03:31:22.928Z,101933.55
2019-02-21T03:33:53.036Z,101928.71
2019-02-21T03:36:23.201Z,101929.55
2019-02-21T03:38:53.330Z,101933.50
2019-02-21T03:41:24.537Z,101925.57
2019-02-21T03:43:54.668Z,101926.90
2019-02-21T03:46:24.835Z,101924.30
2019-02-21T03:48:54.929Z,101916.77
2019-02-21T03:51:25.088Z,101922.92
2019-02-21T03:53:58.447Z,101926.89
2019-02-21T03:56:28.692Z,101925.98
2019-02-21T03:58:58.853Z,101929.53
2019-02-21T04:01:29.001Z,101919.83
2019-02-21T04:03:59.107Z,101927.77
2019-02-21T04:06:29.376Z,101922.06
2019-02-21T04:09:04.299Z,101920.70
2019-02-21T04:11:35.641Z,101918.95
2019-02-21T04:14:05.784Z,101920.74
2019-02-21T04:16:35.947Z,101921.61
2019-02-21T04:19:08.825Z,101918.96
2019-02-21T04:21:38.953Z,101918.55
2019-02-21T04:24:09.028Z,101919.45
2019-02-21T04:26:39.498Z,101911.06
2019-02-21T04:29:09.657Z,101908.42
2019-02-21T04:31:39.775Z,101906.27
2019-02-21T04:34:10.000Z,101901.81
2019-02-21T04:36:40.100Z,101896.97
2019-02-21T04:39:10.240Z,101889.48
2019-02-21T04:41:49.938Z,101893.91
2019-02-21T04:44:24.273Z,101888.58
2019-02-21T04:46:54.399Z,101889.48
2019-02-21T04:49:24.562Z,101893.00
2019-02-21T04:51:56.205Z,101897.87
2019-02-21T04:54:26.813Z,101893.91
2019-02-21T04:56:59.047Z,101897.00
2019-02-21T04:59:32.249Z,101893.00
2019-02-21T05:02:02.387Z,101894.78
2019-02-21T05:04:32.779Z,101889.91
2019-02-21T05:07:05.265Z,101892.13
2019-02-21T05:09:40.365Z,101889.45
2019-02-21T05:12:10.502Z,101895.23
2019-02-21T05:14:40.655Z,101892.55
2019-02-21T05:17:10.742Z,101891.27
2019-02-21T05:19:40.930Z,101896.55
2019-02-21T05:22:13.372Z,101891.71
2019-02-21T05:24:43.543Z,101889.97
2019-02-21T05:27:20.444Z,101893.04
2019-02-21T05:29:50.637Z,101896.97
2019-02-21T05:32:41.180Z,101896.06
2019-02-21T05:35:33.897Z,101893.42
2019-02-21T05:38:25.800Z,101893.00
2019-02-21T05:41:13.276Z,101896.48
2019-02-21T05:44:01.356Z,101892.97
2019-02-21T05:46:51.908Z,101891.65
2019-02-21T05:49:46.695Z,101893.42
2019-02-21T05:52:25.725Z,101894.74
2019-02-21T05:55:14.793Z,101899.99
2019-02-21T05:57:51.983Z,101899.98
2019-02-21T06:00:39.681Z,101906.19
2019-02-21T06:03:21.100Z,101904.87
2019-02-21T06:06:10.212Z,101909.73
2019-02-21T06:08:47.577Z,101907.09
2019-02-21T06:11:23.956Z,101911.02
2019-02-21T06:14:09.597Z,101911.02
2019-02-21T06:17:10.864Z,101910.11
2019-02-21T06:20:05.961Z,101915.40
2019-02-21T06:22:54.216Z,101919.83
2019-02-21T06:25:51.977Z,101920.23
2019-02-21T06:28:28.809Z,101918.95
2019-02-21T06:31:02.512Z,101917.59
2019-02-21T06:33:34.986Z,101918.91
2019-02-21T06:36:05.154Z,101922.01
2019-02-21T06:38:35.271Z,101918.03
2019-02-21T06:41:05.354Z,101919.32
2019-02-21T06:43:37.389Z,101930.30
2019-02-21T06:46:07.513Z,101926.38
2019-02-21T06:48:37.815Z,101928.55
2019-02-21T06:51:08.002Z,101930.29
2019-02-21T06:53:38.182Z,101930.69
2019-02-21T06:56:08.349Z,101943.95
2019-02-21T06:58:38.534Z,101939.52
2019-02-21T07:01:08.650Z,101946.16
2019-02-21T07:03:38.813Z,101947.47
2019-02-21T07:06:10.045Z,101941.77
2019-02-21T07:08:40.306Z,101947.94
2019-02-21T07:11:10.753Z,101951.50
2019-02-21T07:13:40.915Z,101947.88
2019-02-21T07:16:12.944Z,101944.82
2019-02-21T07:18:43.038Z,101945.22
2019-02-21T07:21:13.441Z,101951.43
2019-02-21T07:23:43.970Z,101957.58
2019-02-21T07:26:17.936Z,101953.22
2019-02-21T07:28:48.044Z,101958.98
2019-02-21T07:31:28.286Z,101952.83
2019-02-21T07:33:50.202Z,101956.80
2019-02-21T07:36:20.315Z,101957.76
2019-02-21T07:38:50.515Z,101955.58
2019-02-21T07:41:20.683Z,101958.67
2019-02-21T07:43:51.893Z,101967.98
2019-02-21T07:46:22.386Z,101962.73
2019-02-21T07:48:52.529Z,101968.94
2019-02-21T07:51:22.731Z,101968.06
2019-02-21T07:53:52.857Z,101971.16
2019-02-21T07:56:23.057Z,101973.36
2019-02-21T07:58:53.167Z,101976.45
2019-02-21T08:01:23.922Z,101976.05
2019-02-21T08:03:54.027Z,101980.93
2019-02-21T08:06:24.162Z,101984.47
2019-02-21T08:08:54.294Z,101988.00
2019-02-21T08:11:24.483Z,101993.31
2019-02-21T08:13:54.584Z,101994.64
2019-02-21T08:16:24.726Z,101995.53
2019-02-21T08:18:54.904Z,101990.21
2019-02-21T08:21:25.156Z,101996.39
2019-02-21T08:23:55.273Z,101990.20
2019-02-21T08:26:25.457Z,101997.70
2019-02-21T08:28:56.554Z,101994.20
2019-02-21T08:31:26.708Z,101997.69
2019-02-21T08:34:04.447Z,101997.71
2019-02-21T08:36:34.838Z,101995.49
2019-02-21T08:39:07.656Z,101998.11
2019-02-21T08:41:39.714Z,102004.73
2019-02-21T08:44:09.901Z,101996.81
2019-02-21T08:46:40.092Z,102010.50
2019-02-21T08:49:10.242Z,102006.09
2019-02-21T08:51:40.401Z,102011.42
2019-02-21T08:54:11.476Z,102009.66
2019-02-21T08:56:41.809Z,102008.30
2019-02-21T08:59:12.108Z,102010.08
2019-02-21T09:01:42.382Z,102007.88
2019-02-21T09:04:26.377Z,102019.41
2019-02-21T09:06:45.781Z,102015.85
2019-02-21T09:09:16.178Z,102019.38
2019-02-21T09:11:46.325Z,102032.22
2019-02-21T09:14:16.644Z,102020.23
2019-02-21T09:16:46.897Z,102034.83
2019-02-21T09:19:17.279Z,102034.81
2019-02-21T09:21:47.482Z,102029.09
2019-02-21T09:24:35.082Z,102035.28
2019-02-21T09:26:50.142Z,102034.39
2019-02-21T09:29:20.316Z,102041.44
2019-02-21T09:31:50.445Z,102043.23
2019-02-21T09:34:21.561Z,102046.33
2019-02-21T09:36:52.114Z,102043.20
2019-02-21T09:39:22.318Z,102047.66
2019-02-21T09:41:52.442Z,102040.13
2019-02-21T09:44:22.657Z,102036.16
2019-02-21T09:46:52.844Z,102043.22
2019-02-21T09:49:23.458Z,102042.34
2019-02-21T09:51:53.838Z,102036.63
2019-02-21T09:54:24.086Z,102039.27
2019-02-21T09:56:54.239Z,102036.63
2019-02-21T09:59:24.413Z,102043.23
2019-02-21T10:01:54.598Z,102027.75
2019-02-21T10:04:31.917Z,102039.69
2019-02-21T10:06:56.789Z,102033.50
2019-02-21T10:09:26.886Z,102036.15
2019-02-21T10:11:59.196Z,102041.91
2019-02-21T10:14:29.500Z,102043.20
2019-02-21T10:16:59.779Z,102029.03
2019-02-21T10:19:29.896Z,102028.99
2019-02-21T10:22:00.142Z,102024.11
2019-02-21T10:24:30.249Z,102029.39
2019-02-21T10:27:00.444Z,102019.19
2019-02-21T10:29:30.625Z,102016.88
2019-02-21T10:32:00.805Z,102019.73
2019-02-21T10:34:31.030Z,102013.42
2019-02-21T10:37:01.253Z,102014.30
2019-02-21T10:39:31.413Z,102012.63
2019-02-21T10:42:01.620Z,102003.41
2019-02-21T10:44:31.813Z,102001.50
2019-02-21T10:47:02.668Z,101993.05
2019-02-21T10:49:32.797Z,101993.02
2019-02-21T10:52:02.973Z,101988.62
2019-02-21T10:54:33.127Z,101991.34
2019-02-21T10:57:04.137Z,101998.41
2019-02-21T10:59:34.265Z,101977.98
2019-02-21T11:02:04.481Z,101980.20
2019-02-21T11:04:34.653Z,101984.28
2019-02-21T11:07:04.928Z,101986.56
2019-02-21T11:09:35.549Z,101979.73
2019-02-21T11:12:05.899Z,101978.23
2019-02-21T11:14:46.967Z,101978.58
2019-02-21T11:17:07.897Z,101977.44
2019-02-21T11:19:41.915Z,101969.09
2019-02-21T11:22:12.089Z,101979.30
2019-02-21T11:24:42.401Z,101973.75
2019-02-21T11:27:15.161Z,101981.73
2019-02-21T11:29:46.696Z,101973.47
2019-02-21T11:32:16.849Z,101973.08
2019-02-21T11:34:47.031Z,101970.02
2019-02-21T11:37:17.200Z,101970.36
2019-02-21T11:39:48.876Z,101981.80
2019-02-21T11:42:19.321Z,101974.19
2019-02-21T11:44:52.080Z,101971.20
2019-02-21T11:47:22.405Z,101967.23
2019-02-21T11:49:52.524Z,101964.15
2019-02-21T11:52:22.691Z,101970.39
2019-02-21T11:54:52.837Z,101963.67
2019-02-21T11:57:23.894Z,101950.66
2019-02-21T11:59:54.055Z,101945.44
2019-02-21T12:02:26.177Z,101953.86
2019-02-21T12:04:56.366Z,101951.05
2019-02-21T12:07:26.489Z,101947.59
2019-02-21T12:09:57.703Z,101946.95
2019-02-21T12:12:30.766Z,101946.13
2019-02-21T12:15:01.014Z,101949.94
2019-02-21T12:17:31.503Z,101952.58
2019-02-21T12:20:02.434Z,101955.33
2019-02-21T12:22:32.692Z,101947.64
2019-02-21T12:25:02.859Z,101951.20
2019-02-21T12:27:32.974Z,101955.20
2019-02-21T12:30:03.118Z,101953.44
2019-02-21T12:32:33.691Z,101952.88
2019-02-21T12:35:03.840Z,101962.70
2019-02-21T12:37:36.757Z,101958.35
2019-02-21T12:40:07.860Z,101960.20
2019-02-21T12:42:38.055Z,101960.16
2019-02-21T12:45:10.490Z,101958.87
2019-02-21T12:47:49.610Z,101961.08
2019-02-21T12:50:13.849Z,101957.56
2019-02-21T12:52:44.018Z,101956.67
2019-02-21T12:55:26.520Z,101958.94
2019-02-21T12:57:47.124Z,101960.03
2019-02-21T13:00:18.476Z,101953.64
2019-02-21T13:02:48.969Z,101960.20
2019-02-21T13:05:19.434Z,101957.98
2019-02-21T13:07:49.571Z,101961.63
2019-02-21T13:10:19.807Z,101959.97
2019-02-21T13:12:50.003Z,101967.83
2019-02-21T13:15:20.267Z,101965.46
2019-02-21T13:17:51.182Z,101958.39
2019-02-21T13:20:21.855Z,101961.08
2019-02-21T13:22:56.940Z,101957.95
2019-02-21T13:25:27.154Z,101957.02
2019-02-21T13:27:57.384Z,101956.30
2019-02-21T13:30:27.633Z,101948.53
2019-02-21T13:32:57.938Z,101953.62
2019-02-21T13:35:29.455Z,101958.52
2019-02-21T13:38:01.445Z,101964.36
2019-02-21T13:40:31.849Z,101964.23
2019-02-21T13:43:02.054Z,101959.89
2019-02-21T13:45:32.171Z,101959.16
2019-02-21T13:48:06.392Z,101969.41
2019-02-21T13:50:36.472Z,101963.90
2019-02-21T13:53:06.702Z,101966.94
2019-02-21T13:55:36.922Z,101964.80
2019-02-21T13:58:07.160Z,101966.81
2019-02-21T14:00:37.901Z,101968.91
2019-02-21T14:03:08.254Z,101966.41
2019-02-21T14:05:38.640Z,101968.23
2019-02-21T14:08:09.248Z,101975.31
2019-02-21T14:10:39.482Z,101976.22
2019-02-21T14:13:13.608Z,101971.61
2019-02-21T14:15:44.474Z,101975.52
2019-02-21T14:18:18.619Z,101974.09
2019-02-21T14:20:48.831Z,101980.80
2019-02-21T14:23:19.156Z,101977.27
2019-02-21T14:25:49.502Z,101985.83
2019-02-21T14:28:19.687Z,101992.16
2019-02-21T14:30:49.923Z,101978.87
2019-02-21T14:33:20.204Z,101979.75
2019-02-21T14:35:54.421Z,101980.06
2019-02-21T14:38:27.910Z,101985.27
2019-02-21T14:40:58.718Z,101983.57
2019-02-21T14:43:28.922Z,101985.71
2019-02-21T14:45:59.256Z,101986.71
2019-02-21T14:48:31.228Z,101992.58
2019-02-21T14:51:06.945Z,101991.43
2019-02-21T14:53:37.323Z,101987.83
2019-02-21T14:56:07.681Z,102003.77
2019-02-21T14:58:38.189Z,101999.75
2019-02-21T15:01:08.451Z,102001.36
2019-02-21T15:03:38.848Z,102012.09
2019-02-21T15:06:09.088Z,102006.37
2019-02-21T15:08:39.651Z,102007.67
2019-02-21T15:11:10.219Z,102003.77
2019-02-21T15:13:40.550Z,102005.94
2019-02-21T15:16:10.782Z,102009.14
2019-02-21T15:18:41.116Z,102006.59
2019-02-21T15:21:11.411Z,102015.52
2019-02-21T15:23:41.877Z,102016.42
2019-02-21T15:26:12.183Z,102014.62
2019-02-21T15:28:45.103Z,102021.30
2019-02-21T15:31:17.890Z,102014.27
2019-02-21T15:33:48.648Z,102014.73
2019-02-21T15:36:18.799Z,102018.66
2019-02-21T15:38:50.519Z,102022.73
2019-02-21T15:41:22.537Z,102019.63
2019-02-21T15:43:57.470Z,102020.55
2019-02-21T15:46:27.673Z,102025.46
2019-02-21T15:48:57.926Z,102010.89
2019-02-21T15:51:28.065Z,102014.45
2019-02-21T15:53:58.205Z,102017.53
2019-02-21T15:56:29.623Z,102024.20
2019-02-21T15:59:00.091Z,102020.23
2019-02-21T16:01:30.378Z,102022.84
2019-02-21T16:04:00.952Z,102021.98
2019-02-21T16:06:32.255Z,102027.70
2019-02-21T16:09:02.417Z,102030.41
2019-02-21T16:11:36.021Z,102031.26
2019-02-21T16:14:06.344Z,102037.47
2019-02-21T16:16:36.551Z,102034.82
2019-02-21T16:19:09.256Z,102029.94
2019-02-21T16:21:39.454Z,102029.09
2019-02-21T16:24:09.620Z,102033.50
2019-02-21T16:26:39.919Z,102041.91
2019-02-21T16:29:10.247Z,102042.34
2019-02-21T16:31:40.449Z,102036.61
2019-02-21T16:34:10.631Z,102035.71
2019-02-21T16:36:43.747Z,102037.07
2019-02-21T16:39:13.966Z,102039.71
2019-02-21T16:41:44.466Z,102039.71
2019-02-21T16:44:15.954Z,102044.58
2019-02-21T16:46:46.260Z,102042.34
2019-02-21T16:49:17.899Z,102050.72
2019-02-21T16:51:49.549Z,102057.37
2019-02-21T16:54:19.728Z,102052.49
2019-02-21T16:56:50.025Z,102057.35
2019-02-21T16:59:26.624Z,102062.65
2019-02-21T17:02:01.128Z,102066.17
2019-02-21T17:04:32.515Z,102067.52
2019-02-21T17:07:13.074Z,102074.58
2019-02-21T17:09:34.524Z,102077.20
2019-02-21T17:12:06.386Z,102082.96
2019-02-21T17:14:37.922Z,102085.17
2019-02-21T17:17:08.170Z,102086.95
2019-02-21T17:19:38.385Z,102093.55
2019-02-21T17:22:13.294Z,102099.30
2019-02-21T17:24:44.278Z,102100.21
2019-02-21T17:27:14.757Z,102102.41
2019-02-21T17:29:44.907Z,102109.45
2019-02-21T17:32:15.283Z,102105.48
2019-02-21T17:34:45.494Z,102101.09
2019-02-21T17:37:24.571Z,102105.48
2019-02-21T17:39:47.660Z,102105.46
2019-02-21T17:42:21.070Z,102108.56
2019-02-21T17:44:51.271Z,102112.05
2019-02-21T17:47:26.093Z,102112.95
2019-02-21T17:49:56.216Z,102116.06
2019-02-21T17:52:27.116Z,102117.38
2019-02-21T17:55:03.130Z,102119.13
2019-02-21T17:57:33.463Z,102116.45
2019-02-21T18:00:09.799Z,102124.84
2019-02-21T18:02:41.485Z,102127.08
2019-02-21T18:05:11.713Z,102121.73
2019-02-21T18:07:44.038Z,102129.72
2019-02-21T18:10:14.363Z,102130.63
2019-02-21T18:12:44.665Z,102128.40
2019-02-21T18:15:14.979Z,102131.88
2019-02-21T18:17:45.253Z,102127.91
2019-02-21T18:20:36.163Z,102120.00
2019-02-21T18:23:13.880Z,102128.81
2019-02-21T18:25:50.924Z,102130.09
2019-02-21T18:28:21.161Z,102122.61
2019-02-21T18:30:51.714Z,102138.09
2019-02-21T18:33:23.396Z,102136.34
2019-02-21T18:35:53.562Z,102134.11
2019-02-21T18:38:23.743Z,102145.58
2019-02-21T18:40:54.596Z,102142.47
2019-02-21T18:43:24.903Z,102139.37
2019-02-21T18:45:57.529Z,102144.25
2019-02-21T18:48:27.453Z,102144.61
2019-02-21T18:51:02.244Z,102141.97
2019-02-21T18:53:32.390Z,102142.88
2019-02-21T18:56:06.319Z,102139.31
2019-02-21T18:58:36.816Z,102145.06
2019-02-21T19:01:07.251Z,102152.09
2019-02-21T19:03:40.290Z,102146.84
2019-02-21T19:06:14.359Z,102152.09
2019-02-21T19:08:46.423Z,102155.66
2019-02-21T19:11:20.102Z,102158.77
2019-02-21T19:13:52.000Z,102164.93
2019-02-21T19:16:22.373Z,102165.37
2019-02-21T19:18:57.440Z,102161.41
2019-02-21T19:21:31.213Z,102160.50
2019-02-21T19:24:01.505Z,102160.03
2019-02-21T19:26:34.826Z,102153.02
2019-02-21T19:29:05.009Z,102159.68
2019-02-21T19:31:35.167Z,102154.80
2019-02-21T19:34:05.394Z,102164.92
2019-02-21T19:36:35.566Z,102167.57
2019-02-21T19:39:08.861Z,102177.25
2019-02-21T19:41:41.931Z,102184.33
2019-02-21T19:44:15.212Z,102180.41
2019-02-21T19:46:45.812Z,102184.78
2019-02-21T19:49:18.685Z,102186.92
2019-02-21T19:51:49.510Z,102186.11
2019-02-21T19:54:25.440Z,102187.84
2019-02-21T19:56:55.643Z,102188.70
2019-02-21T19:59:25.879Z,102189.55
2019-02-21T20:01:56.005Z,102198.44
2019-02-21T20:04:27.237Z,102200.20
2019-02-21T20:06:57.440Z,102191.34
2019-02-21T20:09:29.374Z,102197.11
2019-02-21T20:11:59.717Z,102197.50
2019-02-21T20:14:31.329Z,102200.20
2019-02-21T20:17:01.599Z,102197.57
2019-02-21T20:19:31.859Z,102202.85
2019-02-21T20:22:02.054Z,102201.55
2019-02-21T20:24:32.309Z,102203.31
2019-02-21T20:27:03.234Z,102213.52
2019-02-21T20:29:33.569Z,102211.67
2019-02-21T20:32:03.702Z,102216.97
2019-02-21T20:34:33.946Z,102216.97
2019-02-21T20:37:04.679Z,102223.63
2019-02-21T20:39:39.514Z,102233.78
2019-02-21T20:44:59.737Z,102224.48
2019-02-21T20:47:31.381Z,102237.27
2019-02-21T20:50:04.473Z,102238.53
2019-02-21T20:52:35.669Z,102242.91
2019-02-21T20:55:10.063Z,102240.77
2019-02-21T20:57:40.600Z,102246.93
2019-02-21T21:00:12.403Z,102255.75
2019-02-21T21:02:43.296Z,102251.77
2019-02-21T21:05:14.298Z,102253.95
2019-02-21T21:07:44.910Z,102246.06
2019-02-21T21:10:15.633Z,102257.51
2019-02-21T21:12:46.200Z,102249.95
2019-02-21T21:15:17.378Z,102250.84
2019-02-21T21:17:51.252Z,102253.07
2019-02-21T21:20:21.895Z,102249.17
2019-02-21T21:22:52.680Z,102251.83
2019-02-21T21:25:23.010Z,102255.81
2019-02-21T21:27:53.274Z,102260.23
2019-02-21T21:30:26.206Z,102260.64
2019-02-21T21:32:57.350Z,102257.53
2019-02-21T21:35:28.496Z,102266.79
2019-02-21T21:37:58.640Z,102267.66
2019-02-21T21:40:28.756Z,102264.59
2019-02-21T21:43:00.417Z,102270.31
2019-02-21T21:45:31.512Z,102276.04
2019-02-21T21:48:01.721Z,102274.28
2019-02-21T21:50:34.598Z,102280.97
2019-02-21T21:53:05.906Z,102287.95
2019-02-21T21:55:36.204Z,102294.59
2019-02-21T21:58:06.461Z,102300.74
2019-02-21T22:00:36.850Z,102299.44
2019-02-21T22:03:07.065Z,102305.11
2019-02-21T22:05:37.316Z,102291.84
2019-02-21T22:08:07.642Z,102297.59
2019-02-21T22:10:37.870Z,102298.95
2019-02-21T22:13:08.316Z,102298.38
2019-02-21T22:15:38.875Z,102304.20
2019-02-21T22:18:09.040Z,102306.00
2019-02-21T22:20:41.082Z,102311.69
2019-02-21T22:23:11.328Z,102314.34
2019-02-21T22:25:41.492Z,102321.84
2019-02-21T22:28:11.709Z,102319.56
2019-02-21T22:30:41.855Z,102318.20
2019-02-21T22:33:12.185Z,102321.34
2019-02-21T22:35:42.316Z,102322.27
2019-02-21T22:38:12.643Z,102326.66
2019-02-21T22:40:46.075Z,102327.58
2019-02-21T22:43:16.259Z,102332.02
2019-02-21T22:45:46.369Z,102328.02
2019-02-21T22:48:16.615Z,102334.66
2019-02-21T22:50:46.711Z,102335.05
2019-02-21T22:53:17.075Z,102341.64
2019-02-21T22:55:47.174Z,102345.61
2019-02-21T22:58:17.358Z,102346.11
2019-02-21T23:01:15.287Z,102355.84
2019-02-21T23:04:01.353Z,102351.87
2019-02-21T23:06:54.688Z,102357.08
2019-02-21T23:09:28.117Z,102360.16
2019-02-21T23:11:58.590Z,102346.08
2019-02-21T23:14:28.986Z,102348.27
2019-02-21T23:17:02.853Z,102349.14
2019-02-21T23:19:35.175Z,102358.40
2019-02-21T23:22:05.837Z,102368.14
2019-02-21T23:24:36.227Z,102369.81
2019-02-21T23:27:06.451Z,102369.82
2019-02-21T23:29:36.676Z,102363.20
2019-02-21T23:32:06.923Z,102364.98
2019-02-21T23:34:44.182Z,102365.44
2019-02-21T23:37:14.536Z,102367.66
2019-02-21T23:39:44.717Z,102369.47
2019-02-21T23:42:15.119Z,102367.69
2019-02-21T23:44:46.325Z,102368.60
2019-02-21T23:47:16.475Z,102368.98
2019-02-21T23:49:46.656Z,102359.69
2019-02-21T23:52:16.783Z,102361.48
2019-02-21T23:54:46.923Z,102369.54
2019-02-21T23:57:17.109Z,102368.22
2019-02-21T23:59:47.410Z,102366.41
